Time,TemperatureF,DewpointF,PressureIn,WindDirection,WindDirectionDegrees,WindSpeedMPH,WindSpeedGustMPH,Humidity,HourlyPrecipIn,Conditions,Clouds,dailyrainin,SolarRadiationWatts/m^2,SoftwareType,DateUTC
2013-01-08 00:00:00,59.2,53.4,29.67,SSE,158,4.0,-999.0,81,0.00,,,0.00,0,Wunderground v.1.15,2013-01-08 06:00:00,
2013-01-08 00:05:00,59.2,53.4,29.67,SSE,158,4.0,-999.0,81,0.00,,,0.00,0,Wunderground v.1.15,2013-01-08 06:05:00,
2013-01-08 00:10:00,59.3,53.1,29.66,SE,135,8.0,-999.0,80,0.00,,,0.00,0,Wunderground v.1.15,2013-01-08 06:10:00,
2013-01-08 00:15:00,59.5,53.3,29.66,SSE,158,13.0,-999.0,80,0.00,,,0.00,0,Wunderground v.1.15,2013-01-08 06:15:00,
2013-01-08 00:20:00,59.5,53.3,29.66,SE,135,11.0,-999.0,80,0.00,,,0.00,0,Wunderground v.1.15,2013-01-08 06:20:00,
2013-01-08 00:25:00,59.5,53.3,29.66,SE,135,8.0,-999.0,80,0.00,,,0.00,0,Wunderground v.1.15,2013-01-08 06:25:00,
2013-01-08 00:30:00,59.5,53.3,29.66,South,180,6.0,-999.0,80,0.00,,,0.00,0,Wunderground v.1.15,2013-01-08 06:30:00,
2013-01-08 00:35:00,59.5,53.0,29.66,South,180,8.0,-999.0,79,0.00,,,0.00,0,Wunderground v.1.15,2013-01-08 06:35:00,
2013-01-08 00:40:00,59.5,52.6,29.65,SE,135,3.0,-999.0,78,0.00,,,0.00,0,Wunderground v.1.15,2013-01-08 06:40:00,
2013-01-08 00:45:00,59.5,52.6,29.65,SE,135,5.0,-999.0,78,0.00,,,0.00,0,Wunderground v.1.15,2013-01-08 06:45:00,
2013-01-08 00:50:00,59.4,52.5,29.65,SSE,158,4.0,-999.0,78,0.00,,,0.00,0,Wunderground v.1.15,2013-01-08 06:50:00,
2013-01-08 00:55:00,59.5,52.3,29.65,SSW,203,3.0,-999.0,77,0.00,,,0.00,0,Wunderground v.1.15,2013-01-08 06:55:00,
2013-01-08 01:00:00,59.6,52.4,29.65,SSW,203,6.0,-999.0,77,0.00,,,0.00,0,Wunderground v.1.15,2013-01-08 07:00:00,
2013-01-08 01:05:00,59.7,52.5,29.64,SSW,203,6.0,-999.0,77,0.00,,,0.00,0,Wunderground v.1.15,2013-01-08 07:05:00,
2013-01-08 01:10:00,59.7,52.5,29.66,SSW,203,5.0,-999.0,77,0.00,,,0.00,0,Wunderground v.1.15,2013-01-08 07:10:00,
2013-01-08 01:15:00,59.5,52.6,29.65,WSW,248,6.0,-999.0,78,0.00,,,0.00,0,Wunderground v.1.15,2013-01-08 07:15:00,
2013-01-08 01:20:00,59.3,52.4,29.64,WSW,248,5.0,-999.0,78,0.00,,,0.00,0,Wunderground v.1.15,2013-01-08 07:20:00,
2013-01-08 01:25:00,59.1,52.2,29.64,SSE,158,4.0,-999.0,78,0.00,,,0.00,0,Wunderground v.1.15,2013-01-08 07:25:00,
2013-01-08 01:30:00,58.9,51.7,29.64,SSE,158,6.0,-999.0,77,0.00,,,0.00,0,Wunderground v.1.15,2013-01-08 07:30:00,
2013-01-08 01:35:00,59.2,51.3,29.63,South,180,5.0,-999.0,75,0.00,,,0.00,0,Wunderground v.1.15,2013-01-08 07:35:00,
2013-01-08 01:40:00,59.2,52.0,29.64,NW,315,2.0,-999.0,77,0.00,,,0.00,0,Wunderground v.1.15,2013-01-08 07:40:00,
2013-01-08 01:45:00,59.4,51.1,29.64,SE,135,4.0,-999.0,74,0.00,,,0.00,0,Wunderground v.1.15,2013-01-08 07:45:00,
2013-01-08 01:50:00,59.6,50.9,29.63,SSW,203,4.0,-999.0,73,0.00,,,0.00,0,Wunderground v.1.15,2013-01-08 07:50:00,
2013-01-08 01:55:00,60.0,51.3,29.63,ESE,113,4.0,-999.0,73,0.00,,,0.00,0,Wunderground v.1.15,2013-01-08 07:55:00,
2013-01-08 02:00:00,60.2,51.5,29.63,ENE,68,4.0,-999.0,73,0.00,,,0.00,0,Wunderground v.1.15,2013-01-08 08:00:00,
2013-01-08 02:05:00,60.3,51.2,29.62,SE,135,5.0,-999.0,72,0.00,,,0.00,0,Wunderground v.1.15,2013-01-08 08:05:00,
2013-01-08 02:10:00,60.4,50.6,29.62,SSE,158,5.0,-999.0,70,0.00,,,0.00,0,Wunderground v.1.15,2013-01-08 08:10:00,
2013-01-08 02:15:00,60.7,49.7,29.62,SE,135,8.0,-999.0,67,0.00,,,0.00,0,Wunderground v.1.15,2013-01-08 08:15:00,
2013-01-08 02:20:00,60.9,49.9,29.62,SE,135,10.0,-999.0,67,0.00,,,0.00,0,Wunderground v.1.15,2013-01-08 08:20:00,
2013-01-08 02:25:00,60.8,49.8,29.62,SSE,158,8.0,-999.0,67,0.00,,,0.00,0,Wunderground v.1.15,2013-01-08 08:25:00,
2013-01-08 02:30:00,60.8,49.4,29.62,SSE,158,7.0,-999.0,66,0.00,,,0.00,0,Wunderground v.1.15,2013-01-08 08:30:00,
2013-01-08 02:35:00,60.9,49.1,29.62,SSE,158,12.0,-999.0,65,0.00,,,0.00,0,Wunderground v.1.15,2013-01-08 08:35:00,
2013-01-08 02:40:00,60.9,49.1,29.63,SE,135,9.0,-999.0,65,0.00,,,0.00,0,Wunderground v.1.15,2013-01-08 08:40:00,
2013-01-08 02:45:00,60.9,49.1,29.62,SE,135,9.0,-999.0,65,0.00,,,0.00,0,Wunderground v.1.15,2013-01-08 08:45:00,
2013-01-08 02:50:00,60.9,49.1,29.63,East,90,3.0,-999.0,65,0.00,,,0.00,0,Wunderground v.1.15,2013-01-08 08:50:00,
2013-01-08 02:55:00,60.6,49.2,29.62,West,270,3.0,-999.0,66,0.00,,,0.00,0,Wunderground v.1.15,2013-01-08 08:55:00,
2013-01-08 03:00:00,60.5,49.5,29.63,SSE,158,4.0,-999.0,67,0.00,,,0.00,0,Wunderground v.1.15,2013-01-08 09:00:00,
2013-01-08 03:05:00,60.5,49.1,29.62,SE,135,4.0,-999.0,66,0.00,,,0.00,0,Wunderground v.1.15,2013-01-08 09:05:00,
2013-01-08 03:10:00,60.6,49.2,29.62,SE,135,9.0,-999.0,66,0.00,,,0.00,0,Wunderground v.1.15,2013-01-08 09:10:00,
2013-01-08 03:15:00,61.3,49.0,29.62,SE,135,20.0,-999.0,64,0.00,,,0.00,0,Wunderground v.1.15,2013-01-08 09:15:00,
2013-01-08 03:20:00,61.6,49.3,29.61,SE,135,20.0,-999.0,64,0.00,,,0.00,0,Wunderground v.1.15,2013-01-08 09:20:00,
2013-01-08 03:25:00,61.6,49.7,29.63,SE,135,19.0,-999.0,65,0.00,,,0.00,0,Wunderground v.1.15,2013-01-08 09:25:00,
2013-01-08 03:30:00,61.5,50.0,29.63,SE,135,17.0,-999.0,66,0.00,,,0.00,0,Wunderground v.1.15,2013-01-08 09:30:00,
2013-01-08 03:35:00,61.2,49.7,29.62,SE,135,16.0,-999.0,66,0.00,,,0.00,0,Wunderground v.1.15,2013-01-08 09:35:00,
2013-01-08 03:40:00,61.0,50.0,29.62,SE,135,15.0,-999.0,67,0.00,,,0.00,0,Wunderground v.1.15,2013-01-08 09:40:00,
2013-01-08 03:45:00,61.1,50.1,29.63,SE,135,15.0,-999.0,67,0.00,,,0.00,0,Wunderground v.1.15,2013-01-08 09:45:00,
2013-01-08 03:50:00,61.0,50.0,29.62,SE,135,14.0,-999.0,67,0.00,,,0.00,0,Wunderground v.1.15,2013-01-08 09:50:00,
2013-01-08 03:55:00,60.8,49.8,29.63,SE,135,13.0,-999.0,67,0.00,,,0.00,0,Wunderground v.1.15,2013-01-08 09:55:00,
2013-01-08 04:00:00,60.6,50.0,29.63,SE,135,11.0,-999.0,68,0.00,,,0.00,0,Wunderground v.1.15,2013-01-08 10:00:00,
2013-01-08 04:05:00,60.3,49.7,29.63,SE,135,12.0,-999.0,68,0.00,,,0.00,0,Wunderground v.1.15,2013-01-08 10:05:00,
2013-01-08 04:10:00,60.1,49.5,29.63,SE,135,8.0,-999.0,68,0.00,,,0.00,0,Wunderground v.1.15,2013-01-08 10:10:00,
2013-01-08 04:15:00,59.9,49.3,29.63,SE,135,13.0,-999.0,68,0.00,,,0.00,0,Wunderground v.1.15,2013-01-08 10:15:00,
2013-01-08 04:20:00,60.1,49.1,29.64,SE,135,15.0,-999.0,67,0.00,,,0.00,0,Wunderground v.1.15,2013-01-08 10:20:00,
2013-01-08 04:25:00,60.1,49.1,29.64,ESE,113,8.0,-999.0,67,0.00,,,0.00,0,Wunderground v.1.15,2013-01-08 10:25:00,
2013-01-08 04:30:00,60.1,48.7,29.63,SE,135,11.0,-999.0,66,0.00,,,0.00,0,Wunderground v.1.15,2013-01-08 10:30:00,
2013-01-08 04:35:00,60.1,48.7,29.63,SE,135,14.0,-999.0,66,0.00,,,0.00,0,Wunderground v.1.15,2013-01-08 10:35:00,
2013-01-08 04:40:00,60.0,48.6,29.63,ESE,113,10.0,-999.0,66,0.00,,,0.00,0,Wunderground v.1.15,2013-01-08 10:40:00,
2013-01-08 04:45:00,60.0,48.2,29.63,SE,135,15.0,-999.0,65,0.00,,,0.00,0,Wunderground v.1.15,2013-01-08 10:45:00,
2013-01-08 04:50:00,60.1,48.3,29.63,SE,135,13.0,-999.0,65,0.00,,,0.00,0,Wunderground v.1.15,2013-01-08 10:50:00,
2013-01-08 04:55:00,60.2,48.4,29.63,SE,135,15.0,-999.0,65,0.00,,,0.00,0,Wunderground v.1.15,2013-01-08 10:55:00,
2013-01-08 05:00:00,60.3,48.1,29.63,SE,135,18.0,-999.0,64,0.00,,,0.00,0,Wunderground v.1.15,2013-01-08 11:00:00,
2013-01-08 05:05:00,60.5,47.8,29.63,SE,135,20.0,-999.0,63,0.00,,,0.00,0,Wunderground v.1.15,2013-01-08 11:05:00,
2013-01-08 05:10:00,60.4,48.2,29.63,SE,135,16.0,-999.0,64,0.00,,,0.00,0,Wunderground v.1.15,2013-01-08 11:10:00,
2013-01-08 05:15:00,60.5,47.8,29.63,SE,135,16.0,-999.0,63,0.00,,,0.00,0,Wunderground v.1.15,2013-01-08 11:15:00,
2013-01-08 05:20:00,60.6,47.9,29.64,SE,135,18.0,-999.0,63,0.00,,,0.00,0,Wunderground v.1.15,2013-01-08 11:20:00,
2013-01-08 05:25:00,60.4,47.7,29.66,SE,135,16.0,-999.0,63,0.00,,,0.00,0,Wunderground v.1.15,2013-01-08 11:25:00,
2013-01-08 05:30:00,60.5,47.8,29.65,SE,135,17.0,-999.0,63,0.00,,,0.00,0,Wunderground v.1.15,2013-01-08 11:30:00,
2013-01-08 05:35:00,60.5,47.8,29.65,ESE,113,15.0,-999.0,63,0.00,,,0.00,0,Wunderground v.1.15,2013-01-08 11:35:00,
2013-01-08 05:40:00,60.6,47.9,29.66,SE,135,17.0,-999.0,63,0.00,,,0.00,0,Wunderground v.1.15,2013-01-08 11:40:00,
2013-01-08 05:45:00,60.8,47.7,29.65,SE,135,19.0,-999.0,62,0.00,,,0.00,0,Wunderground v.1.15,2013-01-08 11:45:00,
2013-01-08 05:50:00,61.2,47.6,29.65,SE,135,22.0,-999.0,61,0.00,,,0.00,0,Wunderground v.1.15,2013-01-08 11:50:00,
2013-01-08 05:55:00,61.2,47.2,29.66,SE,135,17.0,-999.0,60,0.00,,,0.00,0,Wunderground v.1.15,2013-01-08 11:55:00,
2013-01-08 06:00:00,61.2,47.2,29.65,SE,135,17.0,-999.0,60,0.00,,,0.00,5,Wunderground v.1.15,2013-01-08 12:00:00,
2013-01-08 06:05:00,61.3,47.3,29.65,SE,135,16.0,-999.0,60,0.00,,,0.00,8,Wunderground v.1.15,2013-01-08 12:05:00,
2013-01-08 06:10:00,61.5,48.4,29.65,SE,135,17.0,-999.0,62,0.00,,,0.00,11,Wunderground v.1.15,2013-01-08 12:10:00,
2013-01-08 06:15:00,61.6,48.4,29.66,ESE,113,15.0,-999.0,62,0.00,,,0.00,12,Wunderground v.1.15,2013-01-08 12:15:00,
2013-01-08 06:20:00,61.7,48.1,29.66,SE,135,18.0,-999.0,61,0.00,,,0.00,14,Wunderground v.1.15,2013-01-08 12:20:00,
2013-01-08 06:25:00,61.6,48.4,29.66,SE,135,17.0,-999.0,62,0.00,,,0.00,16,Wunderground v.1.15,2013-01-08 12:25:00,
2013-01-08 06:30:00,61.6,48.4,29.66,SE,135,21.0,-999.0,62,0.00,,,0.00,18,Wunderground v.1.15,2013-01-08 12:30:00,
2013-01-08 06:35:00,61.7,48.1,29.67,SE,135,23.0,-999.0,61,0.00,,,0.00,36,Wunderground v.1.15,2013-01-08 12:35:00,
2013-01-08 06:40:00,62.0,48.4,29.67,SE,135,20.0,-999.0,61,0.00,,,0.00,71,Wunderground v.1.15,2013-01-08 12:40:00,
2013-01-08 06:45:00,62.2,48.1,29.67,SE,135,18.0,-999.0,60,0.00,,,0.00,89,Wunderground v.1.15,2013-01-08 12:45:00,
2013-01-08 06:50:00,62.2,47.7,29.67,SE,135,21.0,-999.0,59,0.00,,,0.00,107,Wunderground v.1.15,2013-01-08 12:50:00,
2013-01-08 06:55:00,62.2,48.1,29.69,SE,135,17.0,-999.0,60,0.00,,,0.00,131,Wunderground v.1.15,2013-01-08 12:55:00,
2013-01-08 07:00:00,62.1,48.0,29.68,SE,135,18.0,-999.0,60,0.00,,,0.00,154,Wunderground v.1.15,2013-01-08 13:00:00,
2013-01-08 07:05:00,62.2,47.7,29.69,SE,135,15.0,-999.0,59,0.00,,,0.00,180,Wunderground v.1.15,2013-01-08 13:05:00,
2013-01-08 07:10:00,62.6,47.6,29.70,SE,135,17.0,-999.0,58,0.00,,,0.00,204,Wunderground v.1.15,2013-01-08 13:10:00,
2013-01-08 07:15:00,62.5,48.0,29.69,SE,135,13.0,-999.0,59,0.00,,,0.00,227,Wunderground v.1.15,2013-01-08 13:15:00,
2013-01-08 07:20:00,62.6,48.1,29.70,ESE,113,16.0,-999.0,59,0.00,,,0.00,250,Wunderground v.1.15,2013-01-08 13:20:00,
2013-01-08 07:25:00,62.9,48.3,29.70,SE,135,18.0,-999.0,59,0.00,,,0.00,267,Wunderground v.1.15,2013-01-08 13:25:00,
2013-01-08 07:30:00,63.0,48.4,29.70,SE,135,18.0,-999.0,59,0.00,,,0.00,287,Wunderground v.1.15,2013-01-08 13:30:00,
2013-01-08 07:35:00,63.3,48.7,29.71,SE,135,17.0,-999.0,59,0.00,,,0.00,308,Wunderground v.1.15,2013-01-08 13:35:00,
2013-01-08 07:40:00,63.5,48.9,29.69,SE,135,15.0,-999.0,59,0.00,,,0.00,327,Wunderground v.1.15,2013-01-08 13:40:00,
2013-01-08 07:45:00,63.8,49.2,29.70,SE,135,13.0,-999.0,59,0.00,,,0.00,347,Wunderground v.1.15,2013-01-08 13:45:00,
2013-01-08 07:50:00,64.1,49.5,29.71,SE,135,15.0,-999.0,59,0.00,,,0.00,366,Wunderground v.1.15,2013-01-08 13:50:00,
2013-01-08 07:55:00,64.2,49.6,29.70,SE,135,13.0,-999.0,59,0.00,,,0.00,383,Wunderground v.1.15,2013-01-08 13:55:00,
2013-01-08 08:00:00,64.3,50.1,29.70,SE,135,13.0,-999.0,60,0.00,,,0.00,401,Wunderground v.1.15,2013-01-08 14:00:00,
2013-01-08 08:05:00,64.5,50.3,29.71,SE,135,11.0,-999.0,60,0.00,,,0.00,420,Wunderground v.1.15,2013-01-08 14:05:00,
2013-01-08 08:10:00,64.8,50.1,29.70,SE,135,8.0,-999.0,59,0.00,,,0.00,439,Wunderground v.1.15,2013-01-08 14:10:00,
2013-01-08 08:15:00,64.9,50.2,29.70,SE,135,9.0,-999.0,59,0.00,,,0.00,458,Wunderground v.1.15,2013-01-08 14:15:00,
2013-01-08 08:20:00,64.9,50.7,29.71,SE,135,10.0,-999.0,60,0.00,,,0.00,476,Wunderground v.1.15,2013-01-08 14:20:00,
2013-01-08 08:24:00,65.1,50.9,29.71,ESE,102,8.0,25.0,60,0.00,,,0.00,497,Wunderground v.1.15,2013-01-08 14:24:00,
2013-01-08 08:25:00,65.1,50.9,29.71,East,90,5.0,-999.0,60,0.00,,,0.00,493,Wunderground v.1.15,2013-01-08 14:25:00,
2013-01-08 08:28:00,65.4,50.7,29.70,ESE,107,5.0,25.0,59,0.00,,,0.00,513,Wunderground v.1.15,2013-01-08 14:28:00,
2013-01-08 08:30:00,65.5,51.2,29.70,ESE,113,6.0,-999.0,60,0.00,,,0.00,509,Wunderground v.1.15,2013-01-08 14:30:00,
2013-01-08 08:34:00,65.4,50.7,29.70,SE,132,8.0,8.0,59,0.00,,,0.00,533,Wunderground v.1.15,2013-01-08 14:34:00,
2013-01-08 08:35:00,65.4,51.6,29.70,SE,135,10.0,-999.0,61,0.00,,,0.00,524,Wunderground v.1.15,2013-01-08 14:35:00,
2013-01-08 08:39:00,65.5,51.2,29.70,ESE,113,9.0,9.0,60,0.00,,,0.00,545,Wunderground v.1.15,2013-01-08 14:39:00,
2013-01-08 08:40:00,65.5,51.7,29.70,SE,135,8.0,-999.0,61,0.00,,,0.00,541,Wunderground v.1.15,2013-01-08 14:40:00,
2013-01-08 08:44:00,65.7,51.9,29.71,SE,146,8.0,25.0,61,0.00,,,0.00,561,Wunderground v.1.15,2013-01-08 14:44:00,
2013-01-08 08:45:00,65.6,51.8,29.71,SE,135,8.0,-999.0,61,0.00,,,0.00,556,Wunderground v.1.15,2013-01-08 14:45:00,
2013-01-08 08:50:00,65.8,51.5,29.71,SE,135,7.0,-999.0,60,0.00,,,0.00,572,Wunderground v.1.15,2013-01-08 14:50:00,
2013-01-08 08:53:00,65.9,52.1,29.72,ESE,108,8.0,8.0,61,0.00,,,0.00,591,Wunderground v.1.15,2013-01-08 14:53:00,
2013-01-08 08:55:00,65.9,52.1,29.72,SE,135,5.0,-999.0,61,0.00,,,0.00,588,Wunderground v.1.15,2013-01-08 14:55:00,
2013-01-08 08:59:00,66.1,52.7,29.71,ESE,109,6.0,6.0,62,0.00,,,0.00,606,Wunderground v.1.15,2013-01-08 14:59:00,
2013-01-08 09:00:00,66.1,52.7,29.71,East,90,4.0,-999.0,62,0.00,,,0.00,602,Wunderground v.1.15,2013-01-08 15:00:00,
2013-01-08 09:05:00,66.0,53.5,29.71,NE,45,6.0,-999.0,64,0.00,,,0.00,615,Wunderground v.1.15,2013-01-08 15:05:00,
2013-01-08 09:10:00,65.7,52.8,29.72,ENE,68,8.0,-999.0,63,0.00,,,0.00,630,Wunderground v.1.15,2013-01-08 15:10:00,
2013-01-08 09:15:00,65.4,53.3,29.71,ESE,113,10.0,-999.0,65,0.00,,,0.00,643,Wunderground v.1.15,2013-01-08 15:15:00,
2013-01-08 09:19:00,65.5,53.4,29.71,SE,132,9.0,9.0,65,0.00,,,0.00,657,Wunderground v.1.15,2013-01-08 15:19:00,
2013-01-08 09:20:00,65.6,53.5,29.71,SE,135,7.0,-999.0,65,0.00,,,0.00,656,Wunderground v.1.15,2013-01-08 15:20:00,
2013-01-08 09:24:00,65.8,53.3,29.72,NE,47,9.0,9.0,64,0.00,,,0.00,677,Wunderground v.1.15,2013-01-08 15:24:00,
2013-01-08 09:25:00,65.8,53.7,29.72,SE,135,9.0,-999.0,65,0.00,,,0.00,670,Wunderground v.1.15,2013-01-08 15:25:00,
2013-01-08 09:29:00,66.0,53.5,29.71,NE,38,9.0,9.0,64,0.00,,,0.00,687,Wunderground v.1.15,2013-01-08 15:29:00,
2013-01-08 09:30:00,66.1,54.4,29.71,SE,135,8.0,-999.0,66,0.00,,,0.00,683,Wunderground v.1.15,2013-01-08 15:30:00,
2013-01-08 09:34:00,66.3,54.2,29.71,NE,55,7.0,9.0,65,0.00,,,0.00,700,Wunderground v.1.15,2013-01-08 15:34:00,
2013-01-08 09:35:00,66.4,54.7,29.71,NE,45,6.0,-999.0,66,0.00,,,0.00,696,Wunderground v.1.15,2013-01-08 15:35:00,
2013-01-08 09:39:00,66.7,54.6,29.72,SE,146,6.0,6.0,65,0.00,,,0.00,710,Wunderground v.1.15,2013-01-08 15:39:00,
2013-01-08 09:40:00,66.7,54.1,29.72,NE,45,6.0,-999.0,64,0.00,,,0.00,707,Wunderground v.1.15,2013-01-08 15:40:00,
2013-01-08 09:44:00,66.8,55.1,29.72,ENE,72,6.0,6.0,66,0.00,,,0.00,719,Wunderground v.1.15,2013-01-08 15:44:00,
2013-01-08 09:45:00,66.8,54.7,29.72,SE,135,6.0,-999.0,65,0.00,,,0.00,716,Wunderground v.1.15,2013-01-08 15:45:00,
2013-01-08 09:49:00,66.9,55.2,29.72,East,86,6.0,6.0,66,0.00,,,0.00,729,Wunderground v.1.15,2013-01-08 15:49:00,
2013-01-08 09:50:00,66.9,55.2,29.72,East,90,5.0,-999.0,66,0.00,,,0.00,727,Wunderground v.1.15,2013-01-08 15:50:00,
2013-01-08 09:54:00,66.9,55.2,29.72,SE,143,6.0,21.0,66,0.00,,,0.00,744,Wunderground v.1.15,2013-01-08 15:54:00,
2013-01-08 09:55:00,67.0,54.8,29.72,SE,135,7.0,-999.0,65,0.00,,,0.00,740,Wunderground v.1.15,2013-01-08 15:55:00,
2013-01-08 09:59:00,67.3,55.1,29.72,ESE,112,5.0,21.0,65,0.00,,,0.00,754,Wunderground v.1.15,2013-01-08 15:59:00,
2013-01-08 10:00:00,67.3,55.1,29.72,East,90,4.0,-999.0,65,0.00,,,0.00,750,Wunderground v.1.15,2013-01-08 16:00:00,
2013-01-08 10:04:00,67.2,55.0,29.72,NE,49,5.0,21.0,65,0.00,,,0.00,761,Wunderground v.1.15,2013-01-08 16:04:00,
2013-01-08 10:05:00,67.1,55.4,29.72,SE,135,7.0,-999.0,66,0.00,,,0.00,759,Wunderground v.1.15,2013-01-08 16:05:00,
2013-01-08 10:09:00,67.1,55.4,29.72,NE,34,7.0,21.0,66,0.00,,,0.00,772,Wunderground v.1.15,2013-01-08 16:09:00,
2013-01-08 10:10:00,67.1,55.4,29.72,NE,45,7.0,-999.0,66,0.00,,,0.00,769,Wunderground v.1.15,2013-01-08 16:10:00,
2013-01-08 10:14:00,67.2,55.5,29.72,SE,128,7.0,21.0,66,0.00,,,0.00,779,Wunderground v.1.15,2013-01-08 16:14:00,
2013-01-08 10:15:00,67.2,55.0,29.72,NE,45,8.0,-999.0,65,0.00,,,0.00,775,Wunderground v.1.15,2013-01-08 16:15:00,
2013-01-08 10:19:00,67.2,54.6,29.72,ESE,108,7.0,21.0,64,0.00,,,0.00,784,Wunderground v.1.15,2013-01-08 16:19:00,
2013-01-08 10:20:00,67.1,54.9,29.72,East,90,7.0,-999.0,65,0.00,,,0.00,783,Wunderground v.1.15,2013-01-08 16:20:00,
2013-01-08 10:24:00,67.0,55.3,29.71,East,86,7.0,21.0,66,0.00,,,0.00,795,Wunderground v.1.15,2013-01-08 16:24:00,
2013-01-08 10:25:00,67.0,55.3,29.71,NE,45,9.0,-999.0,66,0.00,,,0.00,792,Wunderground v.1.15,2013-01-08 16:25:00,
2013-01-08 10:29:00,67.1,54.9,29.71,ENE,71,7.0,7.0,65,0.00,,,0.00,800,Wunderground v.1.15,2013-01-08 16:29:00,
2013-01-08 10:30:00,67.2,55.0,29.71,NE,45,5.0,-999.0,65,0.00,,,0.00,800,Wunderground v.1.15,2013-01-08 16:30:00,
2013-01-08 10:34:00,67.5,55.3,29.71,East,92,7.0,15.0,65,0.00,,,0.00,810,Wunderground v.1.15,2013-01-08 16:34:00,
2013-01-08 10:35:00,67.5,54.9,29.71,East,90,9.0,-999.0,64,0.00,,,0.00,807,Wunderground v.1.15,2013-01-08 16:35:00,
2013-01-08 10:39:00,67.6,55.4,29.71,ENE,65,7.0,7.0,65,0.00,,,0.00,814,Wunderground v.1.15,2013-01-08 16:39:00,
2013-01-08 10:40:00,67.6,55.4,29.71,East,90,4.0,-999.0,65,0.00,,,0.00,813,Wunderground v.1.15,2013-01-08 16:40:00,
2013-01-08 10:44:00,67.8,55.2,29.71,NNW,331,6.0,21.0,64,0.00,,,0.00,821,Wunderground v.1.15,2013-01-08 16:44:00,
2013-01-08 10:45:00,67.7,55.1,29.71,NNE,23,7.0,-999.0,64,0.00,,,0.00,818,Wunderground v.1.15,2013-01-08 16:45:00,
2013-01-08 10:49:00,67.5,54.9,29.71,North,360,7.0,7.0,64,0.00,,,0.00,824,Wunderground v.1.15,2013-01-08 16:49:00,
2013-01-08 10:50:00,67.5,55.3,29.71,North,0,7.0,-999.0,65,0.00,,,0.00,824,Wunderground v.1.15,2013-01-08 16:50:00,
2013-01-08 10:54:00,67.9,55.3,29.69,WNW,292,6.0,11.0,64,0.00,,,0.00,830,Wunderground v.1.15,2013-01-08 16:54:00,
2013-01-08 10:55:00,67.9,55.3,29.69,NW,315,4.0,-999.0,64,0.00,,,0.00,829,Wunderground v.1.15,2013-01-08 16:55:00,
2013-01-08 10:59:00,68.1,55.5,29.70,NE,45,4.0,21.0,64,0.00,,,0.00,837,Wunderground v.1.15,2013-01-08 16:59:00,
2013-01-08 11:00:00,68.1,55.9,29.70,NNE,23,5.0,-999.0,65,0.00,,,0.00,835,Wunderground v.1.15,2013-01-08 17:00:00,
2013-01-08 11:04:00,67.6,55.0,29.70,NNE,26,7.0,21.0,64,0.00,,,0.00,838,Wunderground v.1.15,2013-01-08 17:04:00,
2013-01-08 11:05:00,67.6,55.4,29.70,NE,45,8.0,-999.0,65,0.00,,,0.00,838,Wunderground v.1.15,2013-01-08 17:05:00,
2013-01-08 11:09:00,67.5,55.7,29.70,NNE,13,8.0,8.0,66,0.00,,,0.00,840,Wunderground v.1.15,2013-01-08 17:09:00,
2013-01-08 11:10:00,67.6,55.8,29.70,NE,45,7.0,-999.0,66,0.00,,,0.00,842,Wunderground v.1.15,2013-01-08 17:10:00,
2013-01-08 11:13:00,67.5,55.7,29.69,NNE,21,8.0,17.0,66,0.00,,,0.00,846,Wunderground v.1.15,2013-01-08 17:13:00,
2013-01-08 11:15:00,67.5,55.3,29.69,NNE,23,9.0,-999.0,65,0.00,,,0.00,845,Wunderground v.1.15,2013-01-08 17:15:00,
2013-01-08 11:19:00,67.5,56.2,29.69,NE,46,10.0,10.0,67,0.00,,,0.00,847,Wunderground v.1.15,2013-01-08 17:19:00,
2013-01-08 11:20:00,67.5,55.7,29.69,NE,45,9.0,-999.0,66,0.00,,,0.00,847,Wunderground v.1.15,2013-01-08 17:20:00,
2013-01-08 11:24:00,67.3,56.4,29.69,North,350,10.0,21.0,68,0.00,,,0.00,851,Wunderground v.1.15,2013-01-08 17:24:00,
2013-01-08 11:25:00,67.3,56.0,29.69,NNE,23,8.0,-999.0,67,0.00,,,0.00,849,Wunderground v.1.15,2013-01-08 17:25:00,
2013-01-08 11:29:00,67.3,56.0,29.68,NE,46,8.0,8.0,67,0.00,,,0.00,853,Wunderground v.1.15,2013-01-08 17:29:00,
2013-01-08 11:30:00,67.4,56.5,29.68,North,0,8.0,-999.0,68,0.00,,,0.00,850,Wunderground v.1.15,2013-01-08 17:30:00,
2013-01-08 11:34:00,67.3,56.4,29.69,NNE,28,9.0,14.0,68,0.00,,,0.00,847,Wunderground v.1.15,2013-01-08 17:34:00,
2013-01-08 11:35:00,67.3,56.4,29.69,North,0,10.0,-999.0,68,0.00,,,0.00,850,Wunderground v.1.15,2013-01-08 17:35:00,
2013-01-08 11:39:00,67.5,57.0,29.68,NE,50,9.0,9.0,69,0.00,,,0.00,851,Wunderground v.1.15,2013-01-08 17:39:00,
2013-01-08 11:40:00,67.6,56.7,29.68,NE,45,9.0,-999.0,68,0.00,,,0.00,850,Wunderground v.1.15,2013-01-08 17:40:00,
2013-01-08 11:44:00,68.2,57.2,29.69,ESE,115,8.0,21.0,68,0.00,,,0.00,849,Wunderground v.1.15,2013-01-08 17:44:00,
2013-01-08 11:45:00,68.3,57.3,29.69,NE,45,5.0,-999.0,68,0.00,,,0.00,848,Wunderground v.1.15,2013-01-08 17:45:00,
2013-01-08 11:49:00,68.4,57.0,29.69,ESE,109,6.0,21.0,67,0.00,,,0.00,853,Wunderground v.1.15,2013-01-08 17:49:00,
2013-01-08 11:50:00,68.4,57.4,29.69,East,90,7.0,-999.0,68,0.00,,,0.00,851,Wunderground v.1.15,2013-01-08 17:50:00,
2013-01-08 11:54:00,68.4,57.4,29.68,NE,55,6.0,21.0,68,0.00,,,0.00,853,Wunderground v.1.15,2013-01-08 17:54:00,
2013-01-08 11:55:00,68.4,57.4,29.68,ESE,113,7.0,-999.0,68,0.00,,,0.00,852,Wunderground v.1.15,2013-01-08 17:55:00,
2013-01-08 11:59:00,67.6,57.1,29.68,NE,46,8.0,21.0,69,0.00,,,0.00,847,Wunderground v.1.15,2013-01-08 17:59:00,
2013-01-08 12:00:00,67.5,57.0,29.68,NE,45,9.0,-999.0,69,0.00,,,0.00,851,Wunderground v.1.15,2013-01-08 18:00:00,
2013-01-08 12:04:00,67.1,57.0,29.68,NE,34,9.0,21.0,70,0.00,,,0.00,851,Wunderground v.1.15,2013-01-08 18:04:00,
2013-01-08 12:05:00,67.0,56.9,29.68,NE,45,11.0,-999.0,70,0.00,,,0.00,857,Wunderground v.1.15,2013-01-08 18:05:00,
2013-01-08 12:09:00,66.8,56.7,29.68,NE,46,10.0,21.0,70,0.00,,,0.00,847,Wunderground v.1.15,2013-01-08 18:09:00,
2013-01-08 12:10:00,66.7,57.0,29.68,NE,45,9.0,-999.0,71,0.00,,,0.00,854,Wunderground v.1.15,2013-01-08 18:10:00,
2013-01-08 12:13:00,66.7,57.4,29.67,NE,39,10.0,21.0,72,0.00,,,0.00,830,Wunderground v.1.15,2013-01-08 18:13:00,
2013-01-08 12:15:00,66.8,57.5,29.67,NE,45,9.0,-999.0,72,0.00,,,0.00,840,Wunderground v.1.15,2013-01-08 18:15:00,
2013-01-08 12:19:00,66.9,56.8,29.67,NE,48,9.0,21.0,70,0.00,,,0.00,844,Wunderground v.1.15,2013-01-08 18:19:00,
2013-01-08 12:20:00,66.9,57.2,29.67,NE,45,9.0,-999.0,71,0.00,,,0.00,851,Wunderground v.1.15,2013-01-08 18:20:00,
2013-01-08 12:24:00,66.7,57.4,29.67,NNE,27,9.0,21.0,72,0.00,,,0.00,916,Wunderground v.1.15,2013-01-08 18:24:00,
2013-01-08 12:25:00,66.7,57.4,29.67,NE,45,10.0,-999.0,72,0.00,,,0.00,889,Wunderground v.1.15,2013-01-08 18:25:00,
2013-01-08 12:29:00,66.6,57.3,29.67,NE,48,11.0,11.0,72,0.00,,,0.00,963,Wunderground v.1.15,2013-01-08 18:29:00,
2013-01-08 12:30:00,66.5,57.2,29.67,NE,45,11.0,-999.0,72,0.00,,,0.00,914,Wunderground v.1.15,2013-01-08 18:30:00,
2013-01-08 12:34:00,66.2,56.9,29.65,North,355,9.0,21.0,72,0.00,,,0.00,963,Wunderground v.1.15,2013-01-08 18:34:00,
2013-01-08 12:35:00,66.2,56.9,29.65,NE,45,8.0,-999.0,72,0.00,,,0.00,849,Wunderground v.1.15,2013-01-08 18:35:00,
2013-01-08 12:39:00,66.5,57.6,29.65,North,360,8.0,21.0,73,0.00,,,0.00,858,Wunderground v.1.15,2013-01-08 18:39:00,
2013-01-08 12:40:00,66.6,57.7,29.65,NW,315,10.0,-999.0,73,0.00,,,0.00,842,Wunderground v.1.15,2013-01-08 18:40:00,
2013-01-08 12:44:00,66.8,57.5,29.64,West,260,11.0,21.0,72,0.00,,,0.00,849,Wunderground v.1.15,2013-01-08 18:44:00,
2013-01-08 12:45:00,66.9,57.6,29.64,North,0,10.0,-999.0,72,0.00,,,0.00,837,Wunderground v.1.15,2013-01-08 18:45:00,
2013-01-08 12:49:00,67.4,57.7,29.64,East,81,9.0,21.0,71,0.00,,,0.00,812,Wunderground v.1.15,2013-01-08 18:49:00,
2013-01-08 12:50:00,67.4,57.7,29.64,SSE,158,6.0,-999.0,71,0.00,,,0.00,820,Wunderground v.1.15,2013-01-08 18:50:00,
2013-01-08 12:54:00,67.2,57.5,29.64,North,355,7.0,21.0,71,0.00,,,0.00,807,Wunderground v.1.15,2013-01-08 18:54:00,
2013-01-08 12:55:00,67.2,57.5,29.64,North,0,9.0,-999.0,71,0.00,,,0.00,813,Wunderground v.1.15,2013-01-08 18:55:00,
2013-01-08 12:59:00,67.5,58.2,29.63,NNW,346,8.0,15.0,72,0.00,,,0.00,798,Wunderground v.1.15,2013-01-08 18:59:00,
2013-01-08 13:00:00,67.5,57.8,29.63,NNE,23,9.0,-999.0,71,0.00,,,0.00,803,Wunderground v.1.15,2013-01-08 19:00:00,
2013-01-08 13:05:00,67.1,57.4,29.63,NE,45,15.0,-999.0,71,0.00,,,0.00,801,Wunderground v.1.15,2013-01-08 19:05:00,
2013-01-08 13:10:00,67.3,58.0,29.63,NE,45,11.0,-999.0,72,0.00,,,0.00,788,Wunderground v.1.15,2013-01-08 19:10:00,
2013-01-08 13:15:00,67.3,57.6,29.63,NE,45,11.0,-999.0,71,0.00,,,0.00,778,Wunderground v.1.15,2013-01-08 19:15:00,
2013-01-08 13:20:00,67.6,58.2,29.63,NNE,23,8.0,-999.0,72,0.00,,,0.00,771,Wunderground v.1.15,2013-01-08 19:20:00,
2013-01-08 13:25:00,67.8,57.7,29.63,NE,45,9.0,-999.0,70,0.00,,,0.00,758,Wunderground v.1.15,2013-01-08 19:25:00,
2013-01-08 13:30:00,68.1,58.3,29.62,NE,45,8.0,-999.0,71,0.00,,,0.00,753,Wunderground v.1.15,2013-01-08 19:30:00,
2013-01-08 13:35:00,68.0,57.8,29.63,NE,45,9.0,-999.0,70,0.00,,,0.00,746,Wunderground v.1.15,2013-01-08 19:35:00,
2013-01-08 13:40:00,67.9,58.1,29.62,NE,45,10.0,-999.0,71,0.00,,,0.00,738,Wunderground v.1.15,2013-01-08 19:40:00,
2013-01-08 13:45:00,68.0,58.2,29.62,NE,45,8.0,-999.0,71,0.00,,,0.00,718,Wunderground v.1.15,2013-01-08 19:45:00,
2013-01-08 13:50:00,67.8,58.4,29.62,NE,45,7.0,-999.0,72,0.00,,,0.00,715,Wunderground v.1.15,2013-01-08 19:50:00,
2013-01-08 13:55:00,67.8,58.4,29.62,NE,45,8.0,-999.0,72,0.00,,,0.00,700,Wunderground v.1.15,2013-01-08 19:55:00,
2013-01-08 14:00:00,68.2,58.0,29.62,NNE,23,8.0,-999.0,70,0.00,,,0.00,688,Wunderground v.1.15,2013-01-08 20:00:00,
2013-01-08 14:05:00,67.8,58.1,29.61,NE,45,10.0,-999.0,71,0.00,,,0.00,506,Wunderground v.1.15,2013-01-08 20:05:00,
2013-01-08 14:10:00,67.9,58.1,29.61,ESE,113,5.0,-999.0,71,0.00,,,0.00,647,Wunderground v.1.15,2013-01-08 20:10:00,
2013-01-08 14:15:00,67.7,58.0,29.61,ENE,68,11.0,-999.0,71,0.00,,,0.00,634,Wunderground v.1.15,2013-01-08 20:15:00,
2013-01-08 14:20:00,67.6,57.9,29.61,NE,45,12.0,-999.0,71,0.00,,,0.00,624,Wunderground v.1.15,2013-01-08 20:20:00,
2013-01-08 14:25:00,67.7,58.0,29.61,NE,45,14.0,-999.0,71,0.00,,,0.00,608,Wunderground v.1.15,2013-01-08 20:25:00,
2013-01-08 14:30:00,67.8,58.8,29.60,NE,45,9.0,-999.0,73,0.00,,,0.00,589,Wunderground v.1.15,2013-01-08 20:30:00,
2013-01-08 14:35:00,67.9,57.8,29.61,ENE,68,9.0,-999.0,70,0.00,,,0.00,575,Wunderground v.1.15,2013-01-08 20:35:00,
2013-01-08 14:40:00,67.8,58.4,29.60,NE,45,9.0,-999.0,72,0.00,,,0.00,559,Wunderground v.1.15,2013-01-08 20:40:00,
2013-01-08 14:45:00,67.9,58.5,29.60,NNE,23,9.0,-999.0,72,0.00,,,0.00,547,Wunderground v.1.15,2013-01-08 20:45:00,
2013-01-08 14:50:00,67.7,58.3,29.61,NE,45,9.0,-999.0,72,0.00,,,0.00,531,Wunderground v.1.15,2013-01-08 20:50:00,
2013-01-08 14:55:00,67.5,58.5,29.60,NE,45,9.0,-999.0,73,0.00,,,0.00,530,Wunderground v.1.15,2013-01-08 20:55:00,
2013-01-08 15:00:00,67.5,58.5,29.60,NE,45,11.0,-999.0,73,0.00,,,0.00,498,Wunderground v.1.15,2013-01-08 21:00:00,
2013-01-08 15:05:00,67.4,58.1,29.60,NE,45,11.0,-999.0,72,0.00,,,0.00,480,Wunderground v.1.15,2013-01-08 21:05:00,
2013-01-08 15:10:00,67.4,58.8,29.60,NE,45,8.0,-999.0,74,0.00,,,0.00,470,Wunderground v.1.15,2013-01-08 21:10:00,
2013-01-08 15:15:00,67.4,58.4,29.60,NE,45,8.0,-999.0,73,0.00,,,0.00,443,Wunderground v.1.15,2013-01-08 21:15:00,
2013-01-08 15:20:00,67.4,58.4,29.60,ENE,68,8.0,-999.0,73,0.00,,,0.00,429,Wunderground v.1.15,2013-01-08 21:20:00,
2013-01-08 15:25:00,67.2,58.2,29.61,NNE,23,10.0,-999.0,73,0.00,,,0.00,412,Wunderground v.1.15,2013-01-08 21:25:00,
2013-01-08 15:30:00,66.9,58.3,29.61,NNE,23,9.0,-999.0,74,0.00,,,0.00,402,Wunderground v.1.15,2013-01-08 21:30:00,
2013-01-08 15:35:00,66.4,58.2,29.61,NE,45,11.0,-999.0,75,0.00,,,0.00,396,Wunderground v.1.15,2013-01-08 21:35:00,
2013-01-08 15:40:00,66.1,58.3,29.61,NNE,23,10.0,-999.0,76,0.00,,,0.00,301,Wunderground v.1.15,2013-01-08 21:40:00,
2013-01-08 15:45:00,66.0,58.6,29.61,North,0,6.0,-999.0,77,0.00,,,0.00,373,Wunderground v.1.15,2013-01-08 21:45:00,
2013-01-08 15:50:00,66.0,58.6,29.61,East,90,5.0,-999.0,77,0.00,,,0.00,309,Wunderground v.1.15,2013-01-08 21:50:00,
2013-01-08 15:55:00,66.0,58.6,29.61,East,90,3.0,-999.0,77,0.00,,,0.00,258,Wunderground v.1.15,2013-01-08 21:55:00,
2013-01-08 16:00:00,66.0,58.6,29.60,North,0,8.0,-999.0,77,0.00,,,0.00,309,Wunderground v.1.15,2013-01-08 22:00:00,
2013-01-08 16:05:00,65.9,58.5,29.61,North,0,5.0,-999.0,77,0.00,,,0.00,319,Wunderground v.1.15,2013-01-08 22:05:00,
2013-01-08 16:10:00,65.6,58.6,29.62,North,0,8.0,-999.0,78,0.00,,,0.00,168,Wunderground v.1.15,2013-01-08 22:10:00,
2013-01-08 16:15:00,65.2,58.5,29.62,NNE,23,9.0,-999.0,79,0.00,,,0.00,187,Wunderground v.1.15,2013-01-08 22:15:00,
2013-01-08 16:20:00,64.9,58.6,29.62,NE,45,9.0,-999.0,80,0.00,,,0.00,56,Wunderground v.1.15,2013-01-08 22:20:00,
2013-01-08 16:25:00,64.7,58.4,29.62,NNE,23,7.0,-999.0,80,0.00,,,0.00,112,Wunderground v.1.15,2013-01-08 22:25:00,
2013-01-08 16:30:00,64.6,58.3,29.63,NE,45,6.0,-999.0,80,0.00,,,0.00,70,Wunderground v.1.15,2013-01-08 22:30:00,
2013-01-08 16:35:00,64.6,58.3,29.63,NNE,23,5.0,-999.0,80,0.00,,,0.00,89,Wunderground v.1.15,2013-01-08 22:35:00,
2013-01-08 16:40:00,64.6,58.3,29.63,NE,45,7.0,-999.0,80,0.00,,,0.00,90,Wunderground v.1.15,2013-01-08 22:40:00,
2013-01-08 16:45:00,64.4,58.1,29.63,ENE,68,5.0,-999.0,80,0.00,,,0.00,106,Wunderground v.1.15,2013-01-08 22:45:00,
2013-01-08 16:50:00,64.2,58.2,29.64,NE,45,7.0,-999.0,81,0.00,,,0.00,102,Wunderground v.1.15,2013-01-08 22:50:00,
2013-01-08 16:55:00,64.1,58.1,29.64,NNE,23,6.0,-999.0,81,0.00,,,0.00,63,Wunderground v.1.15,2013-01-08 22:55:00,
2013-01-08 17:00:00,63.9,58.0,29.64,ENE,68,5.0,-999.0,81,0.00,,,0.00,55,Wunderground v.1.15,2013-01-08 23:00:00,
2013-01-08 17:05:00,63.8,57.9,29.64,NNE,23,3.0,-999.0,81,0.00,,,0.00,34,Wunderground v.1.15,2013-01-08 23:05:00,
2013-01-08 17:10:00,63.6,58.0,29.64,NE,45,3.0,-999.0,82,0.00,,,0.00,47,Wunderground v.1.15,2013-01-08 23:10:00,
2013-01-08 17:15:00,63.4,57.8,29.64,ENE,68,1.0,-999.0,82,0.00,,,0.00,40,Wunderground v.1.15,2013-01-08 23:15:00,
2013-01-08 17:20:00,63.3,57.7,29.64,ENE,68,3.0,-999.0,82,0.00,,,0.00,27,Wunderground v.1.15,2013-01-08 23:20:00,
2013-01-08 17:25:00,63.1,57.9,29.64,NNW,338,4.0,-999.0,83,0.00,,,0.00,18,Wunderground v.1.15,2013-01-08 23:25:00,
2013-01-08 17:30:00,63.1,57.5,29.64,East,90,3.0,-999.0,82,0.00,,,0.00,8,Wunderground v.1.15,2013-01-08 23:30:00,
2013-01-08 17:35:00,63.0,57.4,29.64,North,0,1.0,-999.0,82,0.00,,,0.00,0,Wunderground v.1.15,2013-01-08 23:35:00,
2013-01-08 17:40:00,62.9,57.7,29.64,NE,45,3.0,-999.0,83,0.00,,,0.00,0,Wunderground v.1.15,2013-01-08 23:40:00,
2013-01-08 17:45:00,62.8,57.9,29.65,NE,45,4.0,-999.0,84,0.00,,,0.00,0,Wunderground v.1.15,2013-01-08 23:45:00,
2013-01-08 17:50:00,62.6,57.7,29.65,North,0,4.0,-999.0,84,0.00,,,0.00,0,Wunderground v.1.15,2013-01-08 23:50:00,
2013-01-08 17:55:00,62.4,57.5,29.65,North,0,4.0,-999.0,84,0.00,,,0.00,0,Wunderground v.1.15,2013-01-08 23:55:00,
2013-01-08 18:00:00,62.3,57.1,29.65,NE,45,4.0,-999.0,83,0.00,,,0.00,0,Wunderground v.1.15,2013-01-09 00:00:00,
2013-01-08 18:05:00,62.4,57.2,29.64,NW,315,2.0,-999.0,83,0.00,,,0.00,0,Wunderground v.1.15,2013-01-09 00:05:00,
2013-01-08 18:10:00,62.4,57.5,29.64,East,90,1.0,-999.0,84,0.00,,,0.00,0,Wunderground v.1.15,2013-01-09 00:10:00,
2013-01-08 18:15:00,62.3,57.4,29.64,NE,45,0.0,-999.0,84,0.00,,,0.00,0,Wunderground v.1.15,2013-01-09 00:15:00,
2013-01-08 18:20:00,62.2,57.3,29.65,West,270,0.0,-999.0,84,0.00,,,0.00,0,Wunderground v.1.15,2013-01-09 00:20:00,
2013-01-08 18:25:00,62.1,57.2,29.65,North,0,4.0,-999.0,84,0.00,,,0.00,0,Wunderground v.1.15,2013-01-09 00:25:00,
2013-01-08 18:30:00,62.1,57.2,29.64,NNW,338,1.0,-999.0,84,0.00,,,0.00,0,Wunderground v.1.15,2013-01-09 00:30:00,
2013-01-08 18:35:00,62.1,57.2,29.65,North,0,3.0,-999.0,84,0.00,,,0.00,0,Wunderground v.1.15,2013-01-09 00:35:00,
2013-01-08 18:40:00,62.1,57.2,29.65,North,0,5.0,-999.0,84,0.00,,,0.00,0,Wunderground v.1.15,2013-01-09 00:40:00,
2013-01-08 18:45:00,62.1,57.2,29.65,North,0,5.0,-999.0,84,0.00,,,0.00,0,Wunderground v.1.15,2013-01-09 00:45:00,
2013-01-08 18:50:00,62.0,57.1,29.66,North,0,2.0,-999.0,84,0.00,,,0.00,0,Wunderground v.1.15,2013-01-09 00:50:00,
2013-01-08 18:55:00,62.0,57.4,29.66,North,0,1.0,-999.0,85,0.00,,,0.00,0,Wunderground v.1.15,2013-01-09 00:55:00,
2013-01-08 19:00:00,61.9,57.3,29.66,North,0,3.0,-999.0,85,0.00,,,0.00,0,Wunderground v.1.15,2013-01-09 01:00:00,
2013-01-08 19:05:00,61.9,57.0,29.66,East,90,3.0,-999.0,84,0.00,,,0.00,0,Wunderground v.1.15,2013-01-09 01:05:00,
2013-01-08 19:10:00,61.8,56.9,29.66,ENE,68,2.0,-999.0,84,0.00,,,0.00,0,Wunderground v.1.15,2013-01-09 01:10:00,
2013-01-08 19:15:00,61.8,56.6,29.66,SW,225,1.0,-999.0,83,0.00,,,0.00,0,Wunderground v.1.15,2013-01-09 01:15:00,
2013-01-08 19:20:00,61.9,56.3,29.67,SSE,158,4.0,-999.0,82,0.00,,,0.00,0,Wunderground v.1.15,2013-01-09 01:20:00,
2013-01-08 19:25:00,62.1,56.2,29.67,SE,135,4.0,-999.0,81,0.00,,,0.00,0,Wunderground v.1.15,2013-01-09 01:25:00,
2013-01-08 19:30:00,62.2,56.3,29.67,SE,135,4.0,-999.0,81,0.00,,,0.00,0,Wunderground v.1.15,2013-01-09 01:30:00,
2013-01-08 19:35:00,62.2,56.3,29.68,SE,135,2.0,-999.0,81,0.00,,,0.00,0,Wunderground v.1.15,2013-01-09 01:35:00,
2013-01-08 19:40:00,62.2,56.3,29.68,SE,135,2.0,-999.0,81,0.00,,,0.00,0,Wunderground v.1.15,2013-01-09 01:40:00,
2013-01-08 19:45:00,62.2,56.3,29.68,SE,135,3.0,-999.0,81,0.00,,,0.00,0,Wunderground v.1.15,2013-01-09 01:45:00,
2013-01-08 19:50:00,62.2,56.3,29.68,SE,135,2.0,-999.0,81,0.00,,,0.00,0,Wunderground v.1.15,2013-01-09 01:50:00,
2013-01-08 19:55:00,62.4,56.5,29.68,SE,135,9.0,-999.0,81,0.00,,,0.00,0,Wunderground v.1.15,2013-01-09 01:55:00,
2013-01-08 20:00:00,62.4,56.5,29.68,SE,135,3.0,-999.0,81,0.00,,,0.00,0,Wunderground v.1.15,2013-01-09 02:00:00,
2013-01-08 20:05:00,62.3,56.0,29.69,SE,135,5.0,-999.0,80,0.00,,,0.00,0,Wunderground v.1.15,2013-01-09 02:05:00,
2013-01-08 20:10:00,62.3,56.0,29.69,SE,135,6.0,-999.0,80,0.00,,,0.00,0,Wunderground v.1.15,2013-01-09 02:10:00,
2013-01-08 20:15:00,62.2,56.0,29.69,ESE,113,6.0,-999.0,80,0.00,,,0.00,0,Wunderground v.1.15,2013-01-09 02:15:00,
2013-01-08 20:20:00,62.2,56.0,29.69,ESE,113,4.0,-999.0,80,0.00,,,0.00,0,Wunderground v.1.15,2013-01-09 02:20:00,
2013-01-08 20:25:00,62.1,55.9,29.69,East,90,4.0,-999.0,80,0.00,,,0.00,0,Wunderground v.1.15,2013-01-09 02:25:00,
2013-01-08 20:30:00,62.1,55.9,29.69,SE,135,6.0,-999.0,80,0.00,,,0.00,0,Wunderground v.1.15,2013-01-09 02:30:00,
2013-01-08 20:35:00,62.0,55.8,29.69,ESE,113,5.0,-999.0,80,0.00,,,0.00,0,Wunderground v.1.15,2013-01-09 02:35:00,
2013-01-08 20:40:00,62.0,55.8,29.70,ESE,113,5.0,-999.0,80,0.00,,,0.00,0,Wunderground v.1.15,2013-01-09 02:40:00,
2013-01-08 20:45:00,62.0,55.8,29.70,SE,135,6.0,-999.0,80,0.00,,,0.00,0,Wunderground v.1.15,2013-01-09 02:45:00,
2013-01-08 20:50:00,61.9,56.0,29.70,SE,135,2.0,-999.0,81,0.00,,,0.00,0,Wunderground v.1.15,2013-01-09 02:50:00,
2013-01-08 20:55:00,61.8,55.9,29.70,SSE,158,4.0,-999.0,81,0.00,,,0.00,0,Wunderground v.1.15,2013-01-09 02:55:00,
2013-01-08 21:00:00,61.7,55.8,29.70,SSE,158,3.0,-999.0,81,0.00,,,0.00,0,Wunderground v.1.15,2013-01-09 03:00:00,
2013-01-08 21:05:00,61.7,56.1,29.71,SSE,158,7.0,-999.0,82,0.00,,,0.00,0,Wunderground v.1.15,2013-01-09 03:05:00,
2013-01-08 21:10:00,61.6,56.0,29.71,SSE,158,4.0,-999.0,82,0.00,,,0.00,0,Wunderground v.1.15,2013-01-09 03:10:00,
2013-01-08 21:15:00,61.6,56.0,29.70,SSE,158,8.0,-999.0,82,0.00,,,0.00,0,Wunderground v.1.15,2013-01-09 03:15:00,
2013-01-08 21:20:00,61.7,55.8,29.71,SE,135,6.0,-999.0,81,0.00,,,0.00,0,Wunderground v.1.15,2013-01-09 03:20:00,
2013-01-08 21:25:00,61.6,55.7,29.70,East,90,2.0,-999.0,81,0.00,,,0.00,0,Wunderground v.1.15,2013-01-09 03:25:00,
2013-01-08 21:30:00,61.4,55.9,29.71,SSE,158,2.0,-999.0,82,0.00,,,0.00,0,Wunderground v.1.15,2013-01-09 03:30:00,
2013-01-08 21:35:00,61.3,55.4,29.71,East,90,4.0,-999.0,81,0.00,,,0.00,0,Wunderground v.1.15,2013-01-09 03:35:00,
2013-01-08 21:40:00,61.2,55.3,29.71,NE,45,3.0,-999.0,81,0.00,,,0.00,0,Wunderground v.1.15,2013-01-09 03:40:00,
2013-01-08 21:45:00,61.0,54.8,29.72,ENE,68,5.0,-999.0,80,0.00,,,0.00,0,Wunderground v.1.15,2013-01-09 03:45:00,
2013-01-08 21:50:00,61.5,54.9,29.72,SE,135,4.0,-999.0,79,0.00,,,0.00,0,Wunderground v.1.15,2013-01-09 03:50:00,
2013-01-08 21:55:00,61.5,54.9,29.71,NE,45,2.0,-999.0,79,0.00,,,0.00,0,Wunderground v.1.15,2013-01-09 03:55:00,
2013-01-08 22:00:00,61.5,54.6,29.71,SE,135,3.0,-999.0,78,0.00,,,0.00,0,Wunderground v.1.15,2013-01-09 04:00:00,
2013-01-08 22:05:00,61.2,54.3,29.71,ESE,113,1.0,-999.0,78,0.00,,,0.00,0,Wunderground v.1.15,2013-01-09 04:05:00,
2013-01-08 22:10:00,61.4,53.0,29.72,SE,135,8.0,-999.0,74,0.00,,,0.00,0,Wunderground v.1.15,2013-01-09 04:10:00,
2013-01-08 22:15:00,61.8,53.1,29.72,ESE,113,8.0,-999.0,73,0.00,,,0.00,0,Wunderground v.1.15,2013-01-09 04:15:00,
2013-01-08 22:20:00,61.9,52.8,29.71,ESE,113,5.0,-999.0,72,0.00,,,0.00,0,Wunderground v.1.15,2013-01-09 04:20:00,
2013-01-08 22:25:00,61.9,53.1,29.71,East,90,3.0,-999.0,73,0.00,,,0.00,0,Wunderground v.1.15,2013-01-09 04:25:00,
2013-01-08 22:30:00,61.4,53.4,29.72,East,90,2.0,-999.0,75,0.00,,,0.00,0,Wunderground v.1.15,2013-01-09 04:30:00,
2013-01-08 22:35:00,60.8,53.9,29.72,ENE,68,2.0,-999.0,78,0.00,,,0.00,0,Wunderground v.1.15,2013-01-09 04:35:00,
2013-01-08 22:40:00,60.5,53.3,29.72,East,90,3.0,-999.0,77,0.00,,,0.00,0,Wunderground v.1.15,2013-01-09 04:40:00,
2013-01-08 22:45:00,60.4,52.8,29.72,East,90,4.0,-999.0,76,0.00,,,0.00,0,Wunderground v.1.15,2013-01-09 04:45:00,
2013-01-08 22:50:00,60.3,53.1,29.72,ENE,68,4.0,-999.0,77,0.00,,,0.00,0,Wunderground v.1.15,2013-01-09 04:50:00,
2013-01-08 22:55:00,60.1,52.5,29.72,ENE,68,2.0,-999.0,76,0.00,,,0.00,0,Wunderground v.1.15,2013-01-09 04:55:00,
2013-01-08 23:00:00,60.3,52.0,29.71,East,90,4.0,-999.0,74,0.00,,,0.00,0,Wunderground v.1.15,2013-01-09 05:00:00,
2013-01-08 23:05:00,60.4,52.4,29.71,East,90,2.0,-999.0,75,0.00,,,0.00,0,Wunderground v.1.15,2013-01-09 05:05:00,
2013-01-08 23:10:00,60.1,52.5,29.72,ESE,113,3.0,-999.0,76,0.00,,,0.00,0,Wunderground v.1.15,2013-01-09 05:10:00,
2013-01-08 23:15:00,59.8,52.9,29.72,ENE,68,3.0,-999.0,78,0.00,,,0.00,0,Wunderground v.1.15,2013-01-09 05:15:00,
2013-01-08 23:20:00,59.7,52.8,29.72,East,90,4.0,-999.0,78,0.00,,,0.00,0,Wunderground v.1.15,2013-01-09 05:20:00,
2013-01-08 23:25:00,59.9,52.7,29.72,East,90,5.0,-999.0,77,0.00,,,0.00,0,Wunderground v.1.15,2013-01-09 05:25:00,
2013-01-08 23:30:00,60.0,52.4,29.72,East,90,4.0,-999.0,76,0.00,,,0.00,0,Wunderground v.1.15,2013-01-09 05:30:00,
2013-01-08 23:35:00,60.1,52.5,29.72,ESE,113,5.0,-999.0,76,0.00,,,0.00,0,Wunderground v.1.15,2013-01-09 05:35:00,
2013-01-08 23:40:00,60.1,52.5,29.72,ENE,68,2.0,-999.0,76,0.00,,,0.00,0,Wunderground v.1.15,2013-01-09 05:40:00,
2013-01-08 23:45:00,59.7,52.5,29.72,SE,135,3.0,-999.0,77,0.00,,,0.00,0,Wunderground v.1.15,2013-01-09 05:45:00,
2013-01-08 23:50:00,59.6,52.0,29.72,East,90,4.0,-999.0,76,0.00,,,0.00,0,Wunderground v.1.15,2013-01-09 05:50:00,
2013-01-08 23:55:00,59.4,52.2,29.72,SE,135,1.0,-999.0,77,0.00,,,0.00,0,Wunderground v.1.15,2013-01-09 05:55:00,